KIX weather

Kansai International Airport
Osaka, Ōsaka Prefecture, Japan

Public forecast

Using degrees Celsius for public forecast. Weather courtesy of forecast.io.

METAR (pilot weather report)

Retrieved 2019/03/23 22:00 UTC (16 minutes ago):

RJBB 232200Z 34009KT 9999 FEW020 BKN050 06/03 Q1020 NOSIG

TAF (pilot weather forecast)

Retrieved 2019/03/23 18:30 UTC (4 hours ago):

TAF RJBB 231709Z 2318/2500 29009KT 9999 FEW020 BKN045 BECMG 2319/2321 34010KT BECMG 2401/2403 31006KT